ADDS METAR Data INFO
IDs: Format: Raw Decoded Include TAF

Data at: 0750 UTC 17 Oct 2017

KSIY 170653Z AUTO 00000KT 10SM CLR 07/M07 A3019 RMK AO2 SLP233 T00721072
KSIY 170553Z AUTO 00000KT 10SM CLR 07/M06 A3019 RMK AO2 SLP233 T00721056 10222 20072 53005
KSIY 170453Z AUTO 00000KT 10SM CLR 09/M09 A3018 RMK AO2 SLP231 T00891089
KSIY 170353Z AUTO 00000KT 10SM CLR 11/M11 A3017 RMK AO2 SLP232 T01061106
KSIY 170253Z AUTO 00000KT 10SM CLR 12/M10 A3017 RMK AO2 SLP234 T01221100 55005
KSIY 170153Z AUTO 12004KT 10SM CLR 14/M08 A3017 RMK AO2 SLP232 T01441083
KSIY 170053Z AUTO 18004KT 10SM CLR 21/M06 A3017 RMK AO2 SLP225 T02111056
KSIY 162353Z AUTO 17003KT 10SM CLR 22/M08 A3019 RMK AO2 SLP230 T02221078 10228 20106 56021
KSIY 162253Z AUTO 19005KT 10SM CLR 22/M07 A3021 RMK AO2 SLP237 T02171072
KSIY 162153Z AUTO VRB04KT 10SM CLR 21/M06 A3023 RMK AO2 SLP245 T02061061
KSIY 162053Z AUTO VRB03KT 10SM CLR 19/M06 A3026 RMK AO2 SLP254 T01941061 58026
KSIY 161953Z AUTO VRB03KT 10SM CLR 16/M06 A3029 RMK AO2 SLP270 T01611056
KSIY 161853Z AUTO VRB03KT 10SM CLR 14/M05 A3032 RMK AO2 SLP279 T01391050
KSIY 161753Z AUTO 00000KT 10SM CLR 11/M04 A3034 RMK AO2 SLP288 T01061044 10106 21022 50002
KSIY 161653Z AUTO 00000KT 10SM CLR 07/M05 A3036 RMK AO2 SLP298 T00721050
KSIY 161553Z AUTO 00000KT 10SM CLR 03/M06 A3034 RMK AO2 SLP296 T00281061
KSIY 161453Z AUTO 00000KT 10SM CLR M02/M08 A3033 RMK AO2 SLP294 T10171083 51008
KSIY 161353Z AUTO 00000KT 10SM CLR M02/M11 A3033 RMK AO2 SLP290 T10221111
KSIY 161253Z AUTO 00000KT 10SM CLR M01/M08 A3031 RMK AO2 SLP279 T10061083
KSIY 161153Z AUTO 00000KT 10SM CLR M01/M07 A3031 RMK AO2 SLP275 T10061067 10050 21011 58002
KSIY 161053Z AUTO 00000KT 10SM CLR M01/M11 A3031 RMK AO2 SLP277 T10111111
KSIY 160953Z AUTO 00000KT 10SM CLR 00/M12 A3032 RMK AO2 SLP278 T00001122
KSIY 160853Z AUTO 00000KT 10SM CLR 02/M07 A3031 RMK AO2 SLP277 T00171072 53004
KSIY 160753Z AUTO 00000KT 10SM CLR 01/M13 A3031 RMK AO2 SLP276 T00111128 401891033
KSIY 160653Z AUTO 00000KT 10SM CLR 04/M11 A3030 RMK AO2 SLP275 T00391106
KSIY 160553Z AUTO 00000KT 10SM CLR 04/M09 A3030 RMK AO2 SLP275 T00441089 10183 20039 53012
KSIY 160453Z AUTO 06004KT 10SM CLR 05/M11 A3029 RMK AO2 SLP274 T00501111
KSIY 160353Z AUTO 10003KT 10SM CLR 06/M11 A3027 RMK AO2 SLP272 T00611106
KSIY 160253Z AUTO 00000KT 10SM CLR 08/M11 A3026 RMK AO2 SLP269 T00831106 53003
KSIY 160153Z AUTO 00000KT 10SM CLR 11/M08 A3025 RMK AO2 SLP265 T01061083
KSIY 160053Z AUTO 17003KT 10SM CLR 17/M07 A3025 RMK AO2 SLP256 T01721072
KSIY 152353Z AUTO 00000KT 10SM CLR 18/M08 A3025 RMK AO2 SLP255 T01831083 10189 20100 56014
KSIY 152253Z AUTO 00000KT 10SM CLR 17/M08 A3026 RMK AO2 SLP260 T01721078
KSIY 152153Z AUTO VRB03KT 10SM CLR 17/M08 A3027 RMK AO2 SLP263 T01721083
KSIY 152053Z AUTO 23006KT 10SM CLR 16/M07 A3030 RMK AO2 SLP273 T01561072 58018
KSIY 151953Z AUTO 00000KT 10SM CLR 15/M07 A3032 RMK AO2 SLP281 T01501072